Time;durP1;ratioP1;P1;durP2;ratioP2;P2;SDS_P1;SDS_P2;PMS_P1;PMS_P2;Temp;Humidity;BMP_temperature;BMP_pressure;BME280_temperature;BME280_humidity;BME280_pressure;Samples;Min_cycle;Max_cycle;Signal;HPM_P1;HPM_P2
2022/05/28 00:00:18;;;;;;;14.77;3.80;;;13.40;99.90;;;;;;5086477;28;20200;-79
2022/05/28 00:02:45;;;;;;;9.33;2.73;;;13.40;99.90;;;;;;5069681;28;20259;-79
2022/05/28 00:05:12;;;;;;;13.07;3.50;;;13.30;99.90;;;;;;5086442;28;20196;-79
2022/05/28 00:07:40;;;;;;;9.97;2.37;;;13.30;99.90;;;;;;5073756;28;20209;-79
2022/05/28 00:10:08;;;;;;;10.00;2.67;;;13.30;99.90;;;;;;5065603;28;20216;-78
2022/05/28 00:12:36;;;;;;;8.70;2.10;;;13.30;99.90;;;;;;5078546;28;20219;-78
2022/05/28 00:15:05;;;;;;;7.87;2.23;;;13.30;99.90;;;;;;5086267;28;20871;-79
2022/05/28 00:17:33;;;;;;;9.23;2.10;;;13.30;99.90;;;;;;5086596;28;20205;-79
2022/05/28 00:20:00;;;;;;;9.00;2.53;;;13.20;99.90;;;;;;5073144;28;20587;-78
2022/05/28 00:22:27;;;;;;;14.23;3.13;;;13.30;99.90;;;;;;5067262;28;20573;-80
2022/05/28 00:24:53;;;;;;;13.07;2.30;;;13.30;99.90;;;;;;5066438;28;20204;-78
2022/05/28 00:27:20;;;;;;;9.80;2.10;;;13.30;99.90;;;;;;5053105;28;20196;-81
2022/05/28 00:29:48;;;;;;;9.47;1.67;;;13.20;99.90;;;;;;5070415;28;20217;-82
2022/05/28 00:32:15;;;;;;;10.90;2.70;;;13.30;99.90;;;;;;5068147;28;20321;-80
2022/05/28 00:34:42;;;;;;;10.63;2.40;;;13.20;99.90;;;;;;5072580;28;20236;-79
2022/05/28 00:37:09;;;;;;;9.93;2.57;;;13.20;99.90;;;;;;5072202;28;20220;-78
2022/05/28 00:39:36;;;;;;;10.30;2.20;;;13.10;99.90;;;;;;5069408;28;20197;-80
2022/05/28 00:42:03;;;;;;;15.50;2.50;;;13.10;99.90;;;;;;5069802;28;20871;-80
2022/05/28 00:44:30;;;;;;;12.07;2.70;;;13.10;99.90;;;;;;5069462;28;20201;-79
2022/05/28 00:46:59;;;;;;;7.87;2.30;;;13.10;99.90;;;;;;5069696;28;20204;-79
2022/05/28 00:49:30;;;;;;;14.67;2.63;;;13.10;99.90;;;;;;5069662;28;20704;-78
2022/05/28 00:52:00;;;;;;;10.63;2.77;;;13.10;99.90;;;;;;5068864;28;20205;-79
2022/05/28 00:54:31;;;;;;;14.67;3.17;;;13.10;99.90;;;;;;5070572;28;20236;-79
2022/05/28 00:56:57;;;;;;;12.50;3.07;;;13.10;99.90;;;;;;5069036;28;20200;-79
2022/05/28 00:59:24;;;;;;;12.20;2.43;;;13.10;99.90;;;;;;5068800;28;20593;-78
2022/05/28 01:01:54;;;;;;;11.23;2.67;;;13.20;99.90;;;;;;5069078;28;20239;-81
2022/05/28 01:04:29;;;;;;;11.53;2.60;;;13.20;99.90;;;;;;5069617;28;20295;-79
2022/05/28 01:07:01;;;;;;;15.23;2.80;;;13.20;99.90;;;;;;5069045;28;20209;-77
2022/05/28 01:09:37;;;;;;;12.30;2.37;;;13.20;99.90;;;;;;5069942;28;20204;-80
2022/05/28 01:12:11;;;;;;;6.73;1.47;;;13.10;99.90;;;;;;5069361;28;20204;-79
2022/05/28 01:14:44;;;;;;;7.57;2.07;;;13.10;99.90;;;;;;5068869;28;20627;-81
2022/05/28 01:17:16;;;;;;;6.90;1.90;;;13.10;99.90;;;;;;5068755;28;20197;-80
2022/05/28 01:19:54;;;;;;;5.23;1.27;;;13.00;99.90;;;;;;5069013;28;20204;-78
2022/05/28 01:22:33;;;;;;;6.10;1.23;;;13.00;99.90;;;;;;5069589;28;20204;-80
2022/05/28 01:25:07;;;;;;;4.13;1.20;;;13.00;99.90;;;;;;5068562;28;20208;-80
2022/05/28 01:27:41;;;;;;;4.10;1.20;;;13.10;99.90;;;;;;5068475;28;20201;-79
2022/05/28 01:30:13;;;;;;;6.23;1.20;;;13.10;99.90;;;;;;5069041;28;20399;-79
2022/05/28 01:32:42;;;;;;;8.50;1.70;;;13.10;99.90;;;;;;5068731;28;20224;-79
2022/05/28 01:35:15;;;;;;;5.17;1.43;;;13.10;99.90;;;;;;5068072;28;20249;-77
2022/05/28 01:37:44;;;;;;;9.10;1.73;;;13.10;99.90;;;;;;5068522;28;20202;-77
2022/05/28 01:40:12;;;;;;;12.63;1.70;;;13.00;99.90;;;;;;5068897;28;20206;-79
2022/05/28 01:42:49;;;;;;;10.13;1.60;;;13.00;99.90;;;;;;5068418;28;20200;-79
2022/05/28 01:45:17;;;;;;;10.03;1.53;;;13.00;99.90;;;;;;5067919;28;20629;-78
2022/05/28 01:47:45;;;;;;;8.30;1.50;;;13.10;99.90;;;;;;5068178;28;20205;-78
2022/05/28 01:50:16;;;;;;;6.03;1.43;;;13.00;99.90;;;;;;5086391;28;20241;-79
2022/05/28 01:52:44;;;;;;;8.47;1.43;;;13.00;99.90;;;;;;5088611;28;20204;-78
2022/05/28 01:55:14;;;;;;;7.20;1.67;;;13.00;99.90;;;;;;5071119;28;20244;-80
2022/05/28 01:57:42;;;;;;;6.73;1.53;;;13.00;99.90;;;;;;5068369;28;20255;-78
2022/05/28 02:00:10;;;;;;;8.53;2.20;;;13.00;99.90;;;;;;5067663;28;20196;-79
2022/05/28 02:02:38;;;;;;;6.57;1.83;;;13.00;99.90;;;;;;5068131;28;20316;-78
2022/05/28 02:05:06;;;;;;;8.00;2.00;;;13.00;99.90;;;;;;5068010;28;20208;-77
2022/05/28 02:07:33;;;;;;;7.07;2.00;;;13.00;99.90;;;;;;5068100;28;20234;-77
2022/05/28 02:10:05;;;;;;;11.50;1.60;;;12.90;99.90;;;;;;5067313;28;20288;-79
2022/05/28 02:12:40;;;;;;;8.50;1.90;;;12.90;99.90;;;;;;5067769;28;20290;-78
2022/05/28 02:15:24;;;;;;;5.63;1.57;;;12.90;99.90;;;;;;5067122;28;20295;-78
2022/05/28 02:17:53;;;;;;;12.03;1.90;;;12.90;99.90;;;;;;5068146;28;20213;-77
2022/05/28 02:20:28;;;;;;;6.83;1.47;;;12.90;99.90;;;;;;5077784;28;20224;-78
2022/05/28 02:23:01;;;;;;;7.23;1.60;;;12.80;99.90;;;;;;5086476;28;20203;-76
2022/05/28 02:25:37;;;;;;;9.27;1.60;;;12.80;99.90;;;;;;5079932;28;20232;-77
2022/05/28 02:28:06;;;;;;;5.60;1.63;;;12.80;99.90;;;;;;5067398;28;20197;-77
2022/05/28 02:30:34;;;;;;;5.53;1.30;;;12.70;99.90;;;;;;5066757;28;20209;-76
2022/05/28 02:33:03;;;;;;;7.80;1.57;;;12.70;99.90;;;;;;5066938;28;20201;-80
2022/05/28 02:35:30;;;;;;;8.50;2.00;;;12.70;99.90;;;;;;5067617;28;20221;-78
2022/05/28 02:37:57;;;;;;;5.97;1.90;;;12.70;99.90;;;;;;5067195;28;20201;-78
2022/05/28 02:40:25;;;;;;;7.00;1.53;;;12.60;99.90;;;;;;5066827;28;20204;-78
2022/05/28 02:42:52;;;;;;;6.07;1.60;;;12.60;99.90;;;;;;5067188;28;20301;-79
2022/05/28 02:45:19;;;;;;;6.03;1.10;;;12.60;99.90;;;;;;5085088;22;20244;-78
2022/05/28 02:47:48;;;;;;;8.37;1.43;;;12.50;99.90;;;;;;5067383;28;20219;-79
2022/05/28 02:50:15;;;;;;;7.13;1.90;;;12.50;99.90;;;;;;5067268;28;20204;-77
2022/05/28 02:52:41;;;;;;;7.70;1.50;;;12.60;99.90;;;;;;5067054;28;20274;-78
2022/05/28 02:55:08;;;;;;;10.63;1.93;;;12.60;99.90;;;;;;5067299;28;20569;-78
2022/05/28 02:57:35;;;;;;;6.97;1.50;;;12.60;99.90;;;;;;5066122;28;20197;-78
2022/05/28 03:00:03;;;;;;;4.33;1.50;;;12.60;99.90;;;;;;5066242;28;20233;-77
2022/05/28 03:02:29;;;;;;;8.53;1.77;;;12.50;99.90;;;;;;5067794;28;20209;-80
2022/05/28 03:04:58;;;;;;;8.27;1.23;;;12.50;99.90;;;;;;5067077;28;20200;-79
2022/05/28 03:07:24;;;;;;;2.93;1.30;;;12.40;99.90;;;;;;5067505;28;20208;-77
2022/05/28 03:09:52;;;;;;;7.77;1.77;;;12.40;99.90;;;;;;5068370;28;20208;-80
2022/05/28 03:12:18;;;;;;;8.03;1.47;;;12.40;99.90;;;;;;5066773;28;20685;-79
2022/05/28 03:14:45;;;;;;;9.50;1.90;;;12.30;99.90;;;;;;5066807;28;20615;-76
2022/05/28 03:17:12;;;;;;;8.23;1.80;;;12.40;99.90;;;;;;5069097;28;20200;-76
2022/05/28 03:19:38;;;;;;;8.93;1.90;;;12.40;99.90;;;;;;5086432;28;20499;-77
2022/05/28 03:22:07;;;;;;;10.60;2.00;;;12.40;99.90;;;;;;5081002;28;20213;-76
2022/05/28 03:24:33;;;;;;;7.83;1.47;;;12.40;99.90;;;;;;5067198;28;20201;-79
2022/05/28 03:27:00;;;;;;;5.13;1.40;;;12.40;99.90;;;;;;5066355;28;20802;-79
2022/05/28 03:29:28;;;;;;;4.77;1.57;;;12.40;99.90;;;;;;5067967;28;20197;-76
2022/05/28 03:31:54;;;;;;;7.63;1.90;;;12.30;99.90;;;;;;5086728;28;20498;-77
2022/05/28 03:34:21;;;;;;;5.90;1.53;;;12.30;99.90;;;;;;5085821;28;20217;-77
2022/05/28 03:36:48;;;;;;;7.13;1.83;;;12.20;99.90;;;;;;5087384;28;20992;-78
2022/05/28 03:39:16;;;;;;;7.93;1.60;;;12.20;99.90;;;;;;5067368;28;20628;-76
2022/05/28 03:41:43;;;;;;;7.93;1.40;;;12.20;99.90;;;;;;5065927;28;20213;-78
2022/05/28 03:44:11;;;;;;;6.70;1.50;;;12.20;99.90;;;;;;5066740;28;20204;-77
2022/05/28 03:46:39;;;;;;;8.03;1.40;;;12.20;99.90;;;;;;5067061;28;20261;-78
2022/05/28 03:49:08;;;;;;;8.50;1.73;;;12.20;99.90;;;;;;5065627;28;20267;-77
2022/05/28 03:51:35;;;;;;;5.90;1.70;;;12.20;99.90;;;;;;5066771;28;20205;-77
2022/05/28 03:54:02;;;;;;;8.87;1.70;;;12.10;99.90;;;;;;5065960;28;20236;-77
2022/05/28 03:56:34;;;;;;;11.77;1.83;;;12.20;99.90;;;;;;5065903;28;20244;-76
2022/05/28 03:59:01;;;;;;;6.47;1.70;;;12.20;99.90;;;;;;5066473;28;20293;-75
2022/05/28 04:01:28;;;;;;;6.67;1.37;;;12.10;99.90;;;;;;5065796;28;20201;-80
2022/05/28 04:03:55;;;;;;;6.57;1.77;;;12.20;99.90;;;;;;5067273;28;20197;-80
2022/05/28 04:06:22;;;;;;;10.73;2.00;;;12.20;99.90;;;;;;5066530;28;20251;-77
2022/05/28 04:08:49;;;;;;;9.77;1.60;;;12.20;99.90;;;;;;5068540;28;20193;-78
2022/05/28 04:11:17;;;;;;;6.97;1.87;;;12.20;99.90;;;;;;5069805;28;20205;-76
2022/05/28 04:13:45;;;;;;;6.97;1.50;;;12.10;99.90;;;;;;5070354;28;20325;-80
2022/05/28 04:16:12;;;;;;;11.53;2.00;;;12.20;99.90;;;;;;5069638;28;20394;-78
2022/05/28 04:18:40;;;;;;;5.13;1.40;;;12.20;99.90;;;;;;5070244;28;20209;-77
2022/05/28 04:21:07;;;;;;;7.43;2.37;;;12.20;99.90;;;;;;5070223;28;20208;-80
2022/05/28 04:23:34;;;;;;;7.67;1.90;;;12.20;99.90;;;;;;5069487;28;20220;-79
2022/05/28 04:26:01;;;;;;;6.27;1.67;;;12.30;99.90;;;;;;5070957;28;20232;-78
2022/05/28 04:28:28;;;;;;;7.17;1.30;;;12.30;99.90;;;;;;5071060;28;20213;-78
2022/05/28 04:30:56;;;;;;;10.40;2.40;;;12.40;99.90;;;;;;5068732;28;20189;-80
2022/05/28 04:33:23;;;;;;;8.20;1.70;;;12.40;99.90;;;;;;5069952;28;20212;-77
2022/05/28 04:35:50;;;;;;;9.90;1.93;;;12.40;99.90;;;;;;5070242;28;20502;-78
2022/05/28 04:38:17;;;;;;;14.03;2.13;;;12.50;99.90;;;;;;5069596;28;20224;-77
2022/05/28 04:40:43;;;;;;;9.37;1.70;;;12.60;99.90;;;;;;5069911;28;20208;-78
2022/05/28 04:43:10;;;;;;;8.77;1.50;;;12.60;99.90;;;;;;5069651;28;20512;-77
2022/05/28 04:45:37;;;;;;;12.60;2.40;;;12.60;99.90;;;;;;5068479;28;20233;-78
2022/05/28 04:48:06;;;;;;;8.60;1.70;;;12.60;99.90;;;;;;5069982;28;20205;-77
2022/05/28 04:50:33;;;;;;;3.17;0.97;;;12.60;99.90;;;;;;5068963;28;20189;-78
2022/05/28 04:52:59;;;;;;;5.27;1.60;;;12.60;99.90;;;;;;5069970;28;20213;-79
2022/05/28 04:55:26;;;;;;;7.50;1.50;;;12.70;99.90;;;;;;5069619;28;20229;-77
2022/05/28 04:57:53;;;;;;;8.00;1.40;;;12.60;99.90;;;;;;5069650;28;20197;-78
2022/05/28 05:00:22;;;;;;;3.93;1.27;;;12.60;99.90;;;;;;5068686;28;20228;-78
2022/05/28 05:02:49;;;;;;;9.80;2.30;;;12.70;99.90;;;;;;5068363;28;20756;-78
2022/05/28 05:05:18;;;;;;;7.07;1.80;;;12.80;99.90;;;;;;5068767;28;20201;-78
2022/05/28 05:07:44;;;;;;;6.63;1.50;;;13.30;99.90;;;;;;5069049;28;20214;-77
2022/05/28 05:10:12;;;;;;;10.17;2.00;;;13.70;99.90;;;;;;5068911;28;20212;-80
2022/05/28 05:12:39;;;;;;;7.40;2.50;;;13.90;99.90;;;;;;5068825;28;20208;-78
2022/05/28 05:15:07;;;;;;;5.30;1.23;;;14.00;99.90;;;;;;5069034;28;20259;-77
2022/05/28 05:17:34;;;;;;;4.93;1.60;;;14.20;99.90;;;;;;5068516;28;20205;-77
2022/05/28 05:20:01;;;;;;;5.10;1.27;;;14.50;99.90;;;;;;5066863;28;20224;-78
2022/05/28 05:22:29;;;;;;;6.10;1.40;;;14.70;99.90;;;;;;5068553;28;20546;-77
2022/05/28 05:24:56;;;;;;;9.02;2.13;;;15.00;99.90;;;;;;5068149;28;20201;-79
2022/05/28 05:27:23;;;;;;;7.65;1.83;;;15.10;99.90;;;;;;5068731;28;20202;-79
2022/05/28 05:29:49;;;;;;;7.80;2.10;;;15.30;99.90;;;;;;5068972;28;20213;-81
2022/05/28 05:32:16;;;;;;;6.00;1.67;;;15.30;99.90;;;;;;5068748;28;20201;-81
2022/05/28 05:34:45;;;;;;;9.07;1.70;;;15.30;99.90;;;;;;5068384;28;20229;-78
2022/05/28 05:37:13;;;;;;;6.53;1.60;;;15.20;99.90;;;;;;5069074;28;20207;-79
2022/05/28 05:39:41;;;;;;;9.60;2.13;;;15.60;99.90;;;;;;5069429;28;20298;-78
2022/05/28 05:42:09;;;;;;;5.10;1.35;;;15.90;99.90;;;;;;5068367;28;20209;-80
2022/05/28 05:44:36;;;;;;;7.28;1.50;;;16.20;99.90;;;;;;5068886;28;20232;-84
2022/05/28 05:47:02;;;;;;;8.05;1.83;;;16.50;99.90;;;;;;5069205;28;20202;-77
2022/05/28 05:49:29;;;;;;;9.57;2.00;;;16.70;99.90;;;;;;5071277;28;20217;-78
2022/05/28 05:51:56;;;;;;;6.97;1.48;;;17.00;99.90;;;;;;5089418;28;20204;-78
2022/05/28 05:54:24;;;;;;;9.15;1.95;;;17.20;99.90;;;;;;5082245;28;20263;-79
2022/05/28 05:56:53;;;;;;;7.13;1.70;;;17.10;99.90;;;;;;5070204;28;20285;-82
2022/05/28 05:59:20;;;;;;;5.03;1.42;;;17.10;99.90;;;;;;5068711;28;20209;-80
2022/05/28 06:01:46;;;;;;;8.02;1.73;;;17.30;99.90;;;;;;5068597;28;20205;-78
2022/05/28 06:04:14;;;;;;;10.55;2.13;;;17.20;99.90;;;;;;5066973;28;20205;-77
2022/05/28 06:06:41;;;;;;;9.07;2.13;;;17.00;99.90;;;;;;5068465;28;20200;-77
2022/05/28 06:09:08;;;;;;;8.65;1.80;;;16.80;99.90;;;;;;5068003;28;20212;-79
2022/05/28 06:11:35;;;;;;;5.53;1.60;;;16.60;99.90;;;;;;5068359;28;20220;-79
2022/05/28 06:14:04;;;;;;;5.72;1.70;;;17.00;99.90;;;;;;5070102;28;20193;-79
2022/05/28 06:16:31;;;;;;;4.00;1.63;;;17.40;99.90;;;;;;5088051;28;21042;-78
2022/05/28 06:18:57;;;;;;;6.05;1.80;;;17.60;99.90;;;;;;5088306;28;20604;-80
2022/05/28 06:21:25;;;;;;;6.43;1.30;;;17.90;99.90;;;;;;5088024;28;20227;-77
2022/05/28 06:23:52;;;;;;;5.65;1.63;;;17.90;99.90;;;;;;5087649;28;20188;-77
2022/05/28 06:26:19;;;;;;;6.40;1.67;;;17.90;99.90;;;;;;5087670;28;20228;-78
2022/05/28 06:28:46;;;;;;;5.97;2.10;;;17.90;99.90;;;;;;5089410;28;20213;-78
2022/05/28 06:31:15;;;;;;;5.28;1.58;;;17.80;99.90;;;;;;5087969;28;20866;-78
2022/05/28 06:33:42;;;;;;;9.25;1.80;;;18.00;99.90;;;;;;5079138;28;20267;-80
2022/05/28 06:36:11;;;;;;;4.65;1.80;;;18.20;99.90;;;;;;5067584;28;20229;-80
2022/05/28 06:38:38;;;;;;;8.75;2.10;;;17.90;99.90;;;;;;5069194;28;20213;-78
2022/05/28 06:41:05;;;;;;;6.53;1.60;;;18.30;99.90;;;;;;5067418;28;20189;-78
2022/05/28 06:43:32;;;;;;;4.63;1.50;;;18.20;99.90;;;;;;5083158;28;20213;-80
2022/05/28 06:46:01;;;;;;;7.55;2.20;;;18.20;99.90;;;;;;5088592;28;20409;-79
2022/05/28 06:48:29;;;;;;;11.45;1.98;;;18.10;99.90;;;;;;5071863;28;20363;-79
2022/05/28 06:51:01;;;;;;;7.82;1.70;;;18.30;99.90;;;;;;5090609;28;20568;-85
2022/05/28 06:53:29;;;;;;;6.85;2.28;;;18.40;99.90;;;;;;5099367;28;20185;-79
2022/05/28 06:55:56;;;;;;;8.05;1.98;;;18.40;99.90;;;;;;5087790;28;20293;-83
2022/05/28 06:58:24;;;;;;;5.78;2.03;;;18.40;99.90;;;;;;5074241;28;20247;-78
2022/05/28 07:00:50;;;;;;;6.00;1.70;;;18.30;99.90;;;;;;5071948;28;20202;-79
2022/05/28 07:03:20;;;;;;;6.75;1.88;;;17.90;99.90;;;;;;5066604;28;20239;-79
2022/05/28 07:05:49;;;;;;;8.98;2.15;;;18.00;99.90;;;;;;5067793;28;20201;-79
2022/05/28 07:08:16;;;;;;;6.03;1.80;;;18.00;99.90;;;;;;5067326;28;20205;-79
2022/05/28 07:10:45;;;;;;;10.35;2.38;;;18.10;99.90;;;;;;5067298;28;20895;-80
2022/05/28 07:13:12;;;;;;;11.02;2.25;;;18.10;99.90;;;;;;5066069;28;20544;-78
2022/05/28 07:15:39;;;;;;;8.23;1.92;;;18.30;99.90;;;;;;5066570;28;20221;-81
2022/05/28 07:18:06;;;;;;;8.13;1.70;;;18.50;99.90;;;;;;5067330;28;20221;-83
2022/05/28 07:20:33;;;;;;;5.35;1.75;;;18.20;99.90;;;;;;5066896;28;20210;-78
2022/05/28 07:23:08;;;;;;;8.77;1.75;;;18.30;99.90;;;;;;5066770;28;20236;-79
2022/05/28 07:25:34;;;;;;;6.97;2.03;;;18.70;99.90;;;;;;5066359;28;20228;-78
2022/05/28 07:28:24;;;;;;;9.27;1.80;;;18.60;99.90;;;;;;5067125;28;20229;-78
2022/05/28 07:30:48;;;;;;;4.80;1.52;;;18.50;99.90;;;;;;5067187;28;20498;-81
2022/05/28 07:33:15;;;;;;;7.40;1.92;;;18.60;99.90;;;;;;5066864;28;20856;-81
2022/05/28 07:35:42;;;;;;;7.22;2.03;;;18.80;99.90;;;;;;5067467;28;20235;-77
2022/05/28 07:38:10;;;;;;;6.68;2.08;;;19.00;99.90;;;;;;5066983;28;20193;-79
2022/05/28 07:40:37;;;;;;;5.28;1.60;;;19.10;99.90;;;;;;5066742;28;20201;-78
2022/05/28 07:43:04;;;;;;;8.80;2.10;;;19.10;99.90;;;;;;5066302;28;20204;-79
2022/05/28 07:45:31;;;;;;;8.20;2.05;;;19.30;99.90;;;;;;5066610;28;20236;-78
2022/05/28 07:47:58;;;;;;;9.68;2.22;;;18.90;99.90;;;;;;5066154;28;20278;-80
2022/05/28 07:50:24;;;;;;;9.93;2.00;;;18.40;99.90;;;;;;5067020;28;20197;-78
2022/05/28 07:52:51;;;;;;;7.97;2.10;;;18.20;99.90;;;;;;5067091;28;20200;-79
2022/05/28 07:55:19;;;;;;;8.25;2.08;;;18.40;99.90;;;;;;5066064;28;20482;-79
2022/05/28 07:57:46;;;;;;;9.35;2.20;;;18.20;99.90;;;;;;5066240;28;20193;-78
2022/05/28 08:00:14;;;;;;;8.80;2.30;;;18.40;99.90;;;;;;5066331;28;20216;-78
2022/05/28 08:02:41;;;;;;;10.65;2.08;;;18.50;99.90;;;;;;5066215;28;20196;-80
2022/05/28 08:05:08;;;;;;;9.20;2.13;;;18.50;99.90;;;;;;5066866;28;20208;-79
2022/05/28 08:07:36;;;;;;;7.15;1.95;;;18.30;99.90;;;;;;5066782;28;20208;-79
2022/05/28 08:10:04;;;;;;;9.07;2.53;;;18.10;99.90;;;;;;5066971;28;20235;-79
2022/05/28 08:12:32;;;;;;;8.73;1.98;;;17.50;99.90;;;;;;5066595;28;20201;-79
2022/05/28 08:14:59;;;;;;;11.95;1.98;;;17.60;99.90;;;;;;5066874;28;20208;-79
2022/05/28 08:17:26;;;;;;;6.50;1.92;;;17.60;99.90;;;;;;5066637;28;20228;-80
2022/05/28 08:19:52;;;;;;;10.30;2.35;;;17.30;99.90;;;;;;5066571;28;20208;-81
2022/05/28 08:25:04;;;;;;;7.72;1.90;;;17.30;99.90;;;;;;5082343;28;20959;-78
2022/05/28 08:27:32;;;;;;;8.45;2.08;;;17.70;99.90;;;;;;5087675;28;20200;-79
2022/05/28 08:29:59;;;;;;;6.40;1.98;;;17.70;99.90;;;;;;5073413;28;20213;-81
2022/05/28 08:32:25;;;;;;;4.15;1.70;;;17.70;99.90;;;;;;5065977;28;20201;-77
2022/05/28 08:34:52;;;;;;;9.63;2.53;;;17.40;99.90;;;;;;5066436;28;20655;-79
2022/05/28 08:37:19;;;;;;;8.82;1.80;;;17.50;99.90;;;;;;5065653;28;20220;-79
2022/05/28 08:39:46;;;;;;;6.35;1.90;;;17.60;99.90;;;;;;5066318;28;20205;-77
2022/05/28 08:42:15;;;;;;;8.18;2.33;;;17.80;99.90;;;;;;5066721;28;20501;-82
2022/05/28 08:44:44;;;;;;;7.68;1.50;;;17.50;99.90;;;;;;5065952;28;20229;-75
2022/05/28 08:47:16;;;;;;;11.18;1.70;;;17.30;99.90;;;;;;5065731;28;20208;-78
2022/05/28 08:49:44;;;;;;;8.45;2.22;;;17.60;99.90;;;;;;5065496;28;20617;-78
2022/05/28 08:52:15;;;;;;;9.18;1.77;;;18.20;99.90;;;;;;5066044;28;20201;-78
2022/05/28 08:54:56;;;;;;;8.90;1.88;;;18.80;99.90;;;;;;5066860;28;20507;-80
2022/05/28 08:57:34;;;;;;;13.35;2.42;;;19.40;99.90;;;;;;5089820;28;20224;-78
2022/05/28 09:00:07;;;;;;;11.20;2.30;;;19.70;99.90;;;;;;5087890;28;20208;-78
2022/05/28 09:02:39;;;;;;;14.00;2.17;;;20.00;99.90;;;;;;5070291;28;20801;-84
2022/05/28 09:05:15;;;;;;;8.07;2.00;;;19.60;99.90;;;;;;5078269;28;20216;-78
2022/05/28 09:07:42;;;;;;;9.43;2.53;;;18.90;99.90;;;;;;5089413;28;20215;-81
2022/05/28 09:10:11;;;;;;;7.03;2.42;;;18.40;99.90;;;;;;5089206;28;20596;-78
2022/05/28 09:12:44;;;;;;;10.93;2.88;;;18.20;99.90;;;;;;5089378;28;20792;-79
2022/05/28 09:15:13;;;;;;;8.23;1.88;;;18.20;99.90;;;;;;5067885;28;20219;-78
2022/05/28 09:17:43;;;;;;;10.07;2.17;;;18.20;99.90;;;;;;5069234;28;20251;-79
2022/05/28 09:20:13;;;;;;;6.93;1.70;;;18.30;99.90;;;;;;5068436;28;20612;-83
2022/05/28 09:22:40;;;;;;;5.90;1.92;;;18.50;99.90;;;;;;5069418;28;20201;-77
2022/05/28 09:25:08;;;;;;;6.22;1.73;;;18.60;99.90;;;;;;5085281;28;20240;-79
2022/05/28 09:27:44;;;;;;;8.05;2.33;;;18.40;99.90;;;;;;5089441;28;20208;-76
2022/05/28 09:30:36;;;;;;;8.90;2.05;;;18.00;99.90;;;;;;5080401;28;20301;-78
2022/05/28 09:33:28;;;;;;;7.88;1.83;;;18.10;99.90;;;;;;5068180;28;20208;-78
2022/05/28 09:36:03;;;;;;;7.00;1.98;;;17.80;99.90;;;;;;5068812;28;20395;-79
2022/05/28 09:38:40;;;;;;;10.55;2.15;;;18.30;99.90;;;;;;5068478;28;20205;-80
2022/05/28 09:41:22;;;;;;;7.20;1.73;;;18.80;99.90;;;;;;5067602;28;20224;-79
2022/05/28 09:43:58;;;;;;;8.15;2.03;;;19.10;99.90;;;;;;5068242;28;20206;-79
2022/05/28 09:46:32;;;;;;;10.25;2.60;;;19.30;99.90;;;;;;5067497;28;20624;-78
2022/05/28 09:49:00;;;;;;;7.15;2.15;;;18.70;99.90;;;;;;5067892;28;20790;-76
2022/05/28 09:51:29;;;;;;;8.50;2.00;;;18.80;99.90;;;;;;5067433;28;20768;-79
2022/05/28 09:54:20;;;;;;;9.43;1.92;;;18.80;99.90;;;;;;5067189;28;20221;-78
2022/05/28 09:56:52;;;;;;;6.95;2.00;;;18.70;99.90;;;;;;5067895;28;20221;-79
2022/05/28 09:59:29;;;;;;;6.10;1.85;;;18.90;99.90;;;;;;5067716;28;20212;-79
2022/05/28 10:02:04;;;;;;;8.70;2.30;;;18.80;99.90;;;;;;5068333;28;20205;-85
2022/05/28 10:04:30;;;;;;;8.65;2.20;;;18.70;99.90;;;;;;5068535;28;20569;-80
2022/05/28 10:07:03;;;;;;;6.50;2.08;;;18.70;99.90;;;;;;5067437;28;20197;-78
2022/05/28 10:09:32;;;;;;;8.65;2.10;;;18.70;99.90;;;;;;5068615;28;20201;-79
2022/05/28 10:12:01;;;;;;;8.45;1.98;;;18.80;99.90;;;;;;5068078;28;20762;-79
2022/05/28 10:14:31;;;;;;;7.97;2.55;;;18.80;99.90;;;;;;5067882;28;20209;-79
2022/05/28 10:17:02;;;;;;;7.82;2.20;;;19.10;99.90;;;;;;5068462;28;20221;-80
2022/05/28 10:19:32;;;;;;;9.77;2.25;;;18.90;99.90;;;;;;5068646;28;20236;-82
2022/05/28 10:22:02;;;;;;;10.82;2.30;;;18.50;99.90;;;;;;5067892;28;20216;-81
2022/05/28 10:24:39;;;;;;;9.85;2.08;;;18.30;99.90;;;;;;5068176;28;20212;-79
2022/05/28 10:27:11;;;;;;;12.48;2.63;;;18.20;99.90;;;;;;5067341;28;20918;-77
2022/05/28 10:29:47;;;;;;;6.60;1.80;;;18.00;99.90;;;;;;5066874;28;20270;-79
2022/05/28 10:32:22;;;;;;;5.97;1.92;;;17.70;99.90;;;;;;5067887;28;20193;-80
2022/05/28 10:35:06;;;;;;;6.28;1.80;;;17.60;99.90;;;;;;5067307;28;20492;-78
2022/05/28 10:37:34;;;;;;;12.25;2.03;;;17.70;99.90;;;;;;5067585;28;20359;-82
2022/05/28 10:40:12;;;;;;;8.77;2.05;;;17.90;99.90;;;;;;5067272;28;20204;-78
2022/05/28 10:42:39;;;;;;;9.02;2.13;;;17.60;99.90;;;;;;5067080;28;20493;-79
2022/05/28 10:45:08;;;;;;;11.48;2.25;;;18.00;99.90;;;;;;5066335;28;20547;-78
2022/05/28 10:48:01;;;;;;;9.80;1.90;;;17.90;99.90;;;;;;5066724;28;20297;-79
2022/05/28 10:50:37;;;;;;;9.55;2.40;;;18.10;99.90;;;;;;5053135;28;20410;-79
2022/05/28 10:53:16;;;;;;;10.00;2.60;;;18.40;99.90;;;;;;5066765;28;20208;-78
2022/05/28 10:55:55;;;;;;;7.38;1.77;;;18.80;99.90;;;;;;5066254;28;20502;-79
2022/05/28 10:58:34;;;;;;;7.47;2.00;;;19.10;99.90;;;;;;5066402;28;20274;-78
2022/05/28 11:01:03;;;;;;;5.95;1.40;;;19.20;99.90;;;;;;5067225;28;20220;-79
2022/05/28 11:03:52;;;;;;;9.00;2.00;;;19.20;99.90;;;;;;5066460;28;20499;-79
2022/05/28 11:06:46;;;;;;;8.00;1.88;;;19.30;99.90;;;;;;5066736;28;20205;-80
2022/05/28 11:09:24;;;;;;;5.55;1.83;;;19.40;99.90;;;;;;5066299;28;20485;-80
2022/05/28 11:12:03;;;;;;;6.78;1.90;;;19.10;99.90;;;;;;5065563;28;20216;-80
2022/05/28 11:14:58;;;;;;;8.32;1.92;;;18.90;99.90;;;;;;5066316;28;20201;-78
2022/05/28 11:17:37;;;;;;;9.20;2.42;;;19.40;99.90;;;;;;5064857;28;20229;-81
2022/05/28 11:20:19;;;;;;;8.60;2.22;;;19.50;99.90;;;;;;5066144;28;20204;-77
2022/05/28 11:23:22;;;;;;;8.52;2.05;;;19.70;99.90;;;;;;5066370;28;20608;-79
2022/05/28 11:26:01;;;;;;;9.68;1.98;;;19.50;99.90;;;;;;5065446;28;20233;-78
2022/05/28 11:28:43;;;;;;;7.55;1.60;;;19.30;99.90;;;;;;5066295;28;20211;-78
2022/05/28 11:31:18;;;;;;;5.57;1.75;;;19.30;99.90;;;;;;5078411;28;20562;-79
2022/05/28 11:33:47;;;;;;;8.65;1.88;;;19.30;99.90;;;;;;5085670;28;20208;-77
2022/05/28 11:36:23;;;;;;;5.82;1.90;;;19.30;99.90;;;;;;5086059;28;20864;-79
2022/05/28 11:38:55;;;;;;;6.63;1.70;;;19.30;99.90;;;;;;5068732;28;20208;-77
2022/05/28 11:41:29;;;;;;;8.43;2.03;;;19.50;99.90;;;;;;5066195;28;20209;-77
2022/05/28 11:44:06;;;;;;;5.45;1.77;;;19.70;99.90;;;;;;5085740;28;20212;-80
2022/05/28 11:46:41;;;;;;;8.13;1.75;;;19.90;99.90;;;;;;5085188;28;20201;-81
2022/05/28 11:52:12;;;;;;;5.82;1.98;;;19.80;99.90;;;;;;5065784;28;20796;-79
2022/05/28 11:54:43;;;;;;;8.45;1.95;;;19.60;99.90;;;;;;5065914;28;20224;-79
2022/05/28 11:57:21;;;;;;;9.55;2.03;;;19.60;99.90;;;;;;5065854;28;20836;-77
2022/05/28 11:59:48;;;;;;;12.18;2.38;;;19.40;99.90;;;;;;5065677;28;20288;-79
2022/05/28 12:02:22;;;;;;;6.95;1.52;;;19.30;99.90;;;;;;5065783;28;20778;-78
2022/05/28 12:04:49;;;;;;;7.78;1.98;;;19.10;99.90;;;;;;5066330;28;20721;-78
2022/05/28 12:07:31;;;;;;;8.57;2.50;;;19.40;99.90;;;;;;5064605;28;20209;-77
2022/05/28 12:09:58;;;;;;;7.55;1.95;;;19.40;99.90;;;;;;5065739;28;20201;-77
2022/05/28 12:12:29;;;;;;;10.18;2.50;;;19.00;99.90;;;;;;5066193;28;20193;-79
2022/05/28 12:15:08;;;;;;;7.75;1.80;;;18.70;99.90;;;;;;5065886;28;20215;-77
2022/05/28 12:17:36;;;;;;;8.65;1.85;;;18.40;99.90;;;;;;5065747;28;20431;-78
2022/05/28 12:20:08;;;;;;;6.90;2.03;;;18.70;99.90;;;;;;5065669;28;20566;-77
2022/05/28 12:22:39;;;;;;;5.88;2.25;;;18.80;99.90;;;;;;5064765;28;20208;-79
2022/05/28 12:25:21;;;;;;;8.63;2.03;;;18.70;99.90;;;;;;5065484;28;20251;-78
2022/05/28 12:28:07;;;;;;;5.95;1.83;;;18.80;99.90;;;;;;5065101;28;20197;-78
2022/05/28 12:30:51;;;;;;;6.53;2.10;;;18.70;99.90;;;;;;5069399;28;20205;-77
2022/05/28 12:33:25;;;;;;;7.07;1.90;;;18.90;99.90;;;;;;5069467;28;20205;-76
2022/05/28 12:36:01;;;;;;;12.20;2.13;;;19.10;99.90;;;;;;5069330;28;20200;-77
2022/05/28 12:39:01;;;;;;;6.38;1.60;;;19.00;99.90;;;;;;5079506;28;20281;-78
2022/05/28 12:41:30;;;;;;;5.93;1.90;;;19.00;99.90;;;;;;5089828;28;20560;-78
2022/05/28 12:44:02;;;;;;;10.40;2.08;;;19.00;99.90;;;;;;5090216;28;20200;-78
2022/05/28 12:46:41;;;;;;;9.05;2.05;;;18.70;99.90;;;;;;5078628;28;20660;-77
2022/05/28 12:49:11;;;;;;;8.70;2.50;;;18.60;99.90;;;;;;5076684;28;20218;-77
2022/05/28 12:51:51;;;;;;;6.68;2.00;;;18.80;99.90;;;;;;5074305;28;20205;-79
2022/05/28 12:54:28;;;;;;;4.18;1.75;;;18.70;99.90;;;;;;5071978;28;20593;-76
2022/05/28 12:57:07;;;;;;;6.47;2.00;;;18.70;99.90;;;;;;5071596;28;20215;-77
2022/05/28 12:59:36;;;;;;;7.80;1.60;;;18.70;99.90;;;;;;5069683;28;20216;-79
2022/05/28 13:02:11;;;;;;;7.40;1.83;;;18.80;99.90;;;;;;5069241;28;20204;-78
2022/05/28 13:04:43;;;;;;;7.03;2.00;;;19.00;99.90;;;;;;5069084;28;20212;-77
2022/05/28 13:07:21;;;;;;;6.18;2.10;;;19.10;99.90;;;;;;5070286;28;20198;-79